createdAt,value
2019-02-22T00:00:00.324Z,9.00
2019-02-22T00:02:36.705Z,8.90
2019-02-22T00:05:05.841Z,8.90
2019-02-22T00:07:34.363Z,8.90
2019-02-22T00:10:03.068Z,8.90
2019-02-22T00:12:31.214Z,8.90
2019-02-22T00:14:59.824Z,8.90
2019-02-22T00:17:33.923Z,8.90
2019-02-22T00:20:02.979Z,8.90
2019-02-22T00:22:35.201Z,8.90
2019-02-22T00:25:05.792Z,9.00
2019-02-22T00:27:34.186Z,8.90
2019-02-22T00:30:03.000Z,8.90
2019-02-22T00:32:32.847Z,8.90
2019-02-22T00:35:04.414Z,8.90
2019-02-22T00:37:32.997Z,8.90
2019-02-22T00:40:02.101Z,8.90
2019-02-22T00:42:30.197Z,8.90
2019-02-22T00:44:58.331Z,8.90
2019-02-22T00:47:29.277Z,8.90
2019-02-22T00:50:07.749Z,8.90
2019-02-22T00:52:38.283Z,8.90
2019-02-22T00:55:06.584Z,8.90
2019-02-22T00:57:35.020Z,8.90
2019-02-22T01:00:04.383Z,8.90
2019-02-22T01:02:33.796Z,8.90
2019-02-22T01:05:01.940Z,8.90
2019-02-22T01:07:30.351Z,8.90
2019-02-22T01:09:58.465Z,8.90
2019-02-22T01:12:26.479Z,8.90
2019-02-22T01:14:54.604Z,8.90
2019-02-22T01:17:22.905Z,8.90
2019-02-22T01:19:51.006Z,8.90
2019-02-22T01:22:19.498Z,8.90
2019-02-22T01:24:47.453Z,8.90
2019-02-22T01:27:15.382Z,8.90
2019-02-22T01:29:43.442Z,8.90
2019-02-22T01:32:11.639Z,8.90
2019-02-22T01:34:39.873Z,8.90
2019-02-22T01:37:08.223Z,8.90
2019-02-22T01:39:36.270Z,8.90
2019-02-22T01:42:04.622Z,8.90
2019-02-22T01:44:33.131Z,8.90
2019-02-22T01:47:01.281Z,8.90
2019-02-22T01:49:29.863Z,8.90
2019-02-22T01:51:57.999Z,8.90
2019-02-22T01:54:26.182Z,8.90
2019-02-22T01:56:54.376Z,8.90
2019-02-22T01:59:22.532Z,8.90
2019-02-22T02:01:50.413Z,8.90
2019-02-22T02:04:18.765Z,8.80
2019-02-22T02:06:47.121Z,8.80
2019-02-22T02:09:15.308Z,8.80
2019-02-22T02:11:45.104Z,8.80
2019-02-22T02:14:14.000Z,8.80
2019-02-22T02:16:42.010Z,8.80
2019-02-22T02:19:10.113Z,8.80
2019-02-22T02:21:40.600Z,8.80
2019-02-22T02:24:08.729Z,8.80
2019-02-22T02:26:36.773Z,8.80
2019-02-22T02:29:05.885Z,8.80
2019-02-22T02:31:35.306Z,8.80
2019-02-22T02:34:03.431Z,8.80
2019-02-22T02:36:31.986Z,8.70
2019-02-22T02:39:00.119Z,8.70
2019-02-22T02:41:28.279Z,8.60
2019-02-22T02:43:56.698Z,8.50
2019-02-22T02:46:25.049Z,8.50
2019-02-22T02:48:53.059Z,8.50
2019-02-22T02:51:21.475Z,8.50
2019-02-22T02:53:50.124Z,8.40
2019-02-22T02:56:18.886Z,8.50
2019-02-22T02:58:47.189Z,8.40
2019-02-22T03:01:15.569Z,8.30
2019-02-22T03:03:43.788Z,8.30
2019-02-22T03:06:40.060Z,8.30
2019-02-22T03:09:09.592Z,8.20
2019-02-22T03:11:37.612Z,8.20
2019-02-22T03:14:06.094Z,8.20
2019-02-22T03:16:34.077Z,8.20
2019-02-22T03:19:02.340Z,8.10
2019-02-22T03:21:30.638Z,8.00
2019-02-22T03:23:58.612Z,7.90
2019-02-22T03:26:26.802Z,7.90
2019-02-22T03:28:55.284Z,7.90
2019-02-22T03:31:23.265Z,7.90
2019-02-22T03:33:51.671Z,7.90
2019-02-22T03:36:20.212Z,7.90
2019-02-22T03:38:47.858Z,7.90
2019-02-22T03:41:15.457Z,7.90
2019-02-22T03:43:43.084Z,8.00
2019-02-22T03:46:10.649Z,8.00
2019-02-22T03:48:38.455Z,8.10
2019-02-22T03:51:06.142Z,8.10
2019-02-22T03:53:38.119Z,8.10
2019-02-22T03:56:05.769Z,8.10
2019-02-22T03:58:33.535Z,8.10
2019-02-22T04:01:01.088Z,8.10
2019-02-22T04:03:28.976Z,8.10
2019-02-22T04:05:56.615Z,8.10
2019-02-22T04:08:24.287Z,8.20
2019-02-22T04:10:51.929Z,8.20
2019-02-22T04:13:19.884Z,8.10
2019-02-22T04:15:47.574Z,8.20
2019-02-22T04:18:17.258Z,8.10
2019-02-22T04:20:45.521Z,8.10
2019-02-22T04:23:13.617Z,8.10
2019-02-22T04:25:41.210Z,8.10
2019-02-22T04:28:08.917Z,8.20
2019-02-22T04:30:37.998Z,8.20
2019-02-22T04:33:05.739Z,8.20
2019-02-22T04:35:33.395Z,8.20
2019-02-22T04:38:01.048Z,8.20
2019-02-22T04:40:28.669Z,8.20
2019-02-22T04:42:56.381Z,8.20
2019-02-22T04:45:23.999Z,8.20
2019-02-22T04:47:51.726Z,8.20
2019-02-22T04:50:21.046Z,8.20
2019-02-22T04:52:48.746Z,8.20
2019-02-22T04:55:16.380Z,8.20
2019-02-22T04:57:44.336Z,8.10
2019-02-22T05:00:12.037Z,8.10
2019-02-22T05:02:41.215Z,8.20
2019-02-22T05:05:09.132Z,8.20
2019-02-22T05:07:36.739Z,8.20
2019-02-22T05:10:04.537Z,8.20
2019-02-22T05:12:32.217Z,8.20
2019-02-22T05:15:11.889Z,8.20
2019-02-22T05:17:35.593Z,8.10
2019-02-22T05:20:06.946Z,8.10
2019-02-22T05:22:34.567Z,8.10
2019-02-22T05:25:02.378Z,8.10
2019-02-22T05:27:30.412Z,8.10
2019-02-22T05:29:58.488Z,8.10
2019-02-22T05:32:27.816Z,8.00
2019-02-22T05:35:08.186Z,8.00
2019-02-22T05:37:49.712Z,8.00
2019-02-22T05:41:11.795Z,7.90
2019-02-22T05:43:40.844Z,8.00
2019-02-22T05:46:22.221Z,8.00
2019-02-22T05:52:24.780Z,8.00
2019-02-22T05:55:03.603Z,8.00
2019-02-22T05:57:44.913Z,8.00
2019-02-22T06:00:14.884Z,8.00
2019-02-22T06:02:44.681Z,8.00
2019-02-22T06:05:12.331Z,7.90
2019-02-22T06:07:43.445Z,7.90
2019-02-22T06:10:14.413Z,7.90
2019-02-22T06:12:46.089Z,7.90
2019-02-22T06:16:26.730Z,7.90
2019-02-22T06:19:00.158Z,7.90
2019-02-22T06:21:53.457Z,7.80
2019-02-22T06:24:21.621Z,7.90
2019-02-22T06:26:49.297Z,7.90
2019-02-22T06:29:17.055Z,7.90
2019-02-22T06:31:44.875Z,8.00
2019-02-22T06:37:36.293Z,8.00
2019-02-22T06:40:08.661Z,8.00
2019-02-22T06:42:58.864Z,8.10
2019-02-22T06:45:33.942Z,8.20
2019-02-22T06:48:02.618Z,8.20
2019-02-22T06:50:33.773Z,8.20
2019-02-22T06:53:03.437Z,8.20
2019-02-22T06:55:31.430Z,8.30
2019-02-22T06:58:01.913Z,8.30
2019-02-22T07:00:29.975Z,8.30
2019-02-22T07:03:00.817Z,8.30
2019-02-22T07:12:20.172Z,8.30
2019-02-22T07:14:47.873Z,8.30
2019-02-22T07:17:16.898Z,8.30
2019-02-22T07:19:45.349Z,8.30
2019-02-22T07:22:13.005Z,8.40
2019-02-22T07:24:41.608Z,8.40
2019-02-22T07:27:12.566Z,8.40
2019-02-22T07:29:41.339Z,8.30
2019-02-22T07:36:01.977Z,8.40
2019-02-22T07:38:29.693Z,8.40
2019-02-22T07:41:02.026Z,8.40
2019-02-22T07:43:29.601Z,8.40
2019-02-22T07:45:57.579Z,8.40
2019-02-22T07:48:26.238Z,8.40
2019-02-22T07:50:57.917Z,8.50
2019-02-22T07:53:23.591Z,8.50
2019-02-22T07:55:56.051Z,8.60
2019-02-22T07:58:24.187Z,8.60
2019-02-22T08:01:29.976Z,8.60
2019-02-22T08:11:49.894Z,8.60
2019-02-22T08:14:17.544Z,8.70
2019-02-22T08:17:09.093Z,8.70
2019-02-22T08:19:41.681Z,8.70
2019-02-22T08:22:09.340Z,8.70
2019-02-22T08:24:38.500Z,8.70
2019-02-22T08:27:06.159Z,8.70
2019-02-22T08:29:33.961Z,8.70
2019-02-22T08:32:34.970Z,8.70
2019-02-22T08:35:09.830Z,8.70
2019-02-22T08:38:12.865Z,8.70
2019-02-22T08:40:55.858Z,8.70
2019-02-22T08:44:21.099Z,8.70
2019-02-22T08:47:07.292Z,8.70
2019-02-22T08:49:35.492Z,8.80
2019-02-22T08:52:04.967Z,8.80
2019-02-22T08:54:55.394Z,8.80
2019-02-22T08:57:35.519Z,8.80
2019-02-22T09:00:14.076Z,8.80
2019-02-22T09:03:49.476Z,8.90
2019-02-22T09:06:52.536Z,8.90
2019-02-22T09:09:43.485Z,9.00
2019-02-22T09:12:38.021Z,9.00
2019-02-22T09:15:22.949Z,9.00
2019-02-22T09:18:46.015Z,9.00
2019-02-22T09:21:18.322Z,9.00
2019-02-22T09:24:29.486Z,9.00
2019-02-22T09:27:23.361Z,9.00
2019-02-22T09:30:02.061Z,9.00
2019-02-22T09:32:31.245Z,9.00
2019-02-22T09:35:02.949Z,9.10
2019-02-22T09:37:31.885Z,9.20
2019-02-22T09:40:01.071Z,9.20
2019-02-22T09:42:45.143Z,9.30
2019-02-22T09:45:29.501Z,9.30
2019-02-22T09:48:56.134Z,9.40
2019-02-22T09:51:46.178Z,9.40
2019-02-22T10:04:57.010Z,9.90
2019-02-22T10:07:50.869Z,9.90
2019-02-22T10:10:35.683Z,9.90
2019-02-22T10:13:14.981Z,9.70
2019-02-22T10:15:44.322Z,9.70
2019-02-22T10:18:13.086Z,9.80
2019-02-22T10:20:42.075Z,9.90
2019-02-22T10:23:24.521Z,9.90
2019-02-22T10:26:04.838Z,10.00
2019-02-22T10:28:34.737Z,9.90
2019-02-22T10:31:22.475Z,9.90
2019-02-22T10:38:28.869Z,10.00
2019-02-22T10:41:28.545Z,10.00
2019-02-22T10:44:25.917Z,9.90
2019-02-22T10:46:52.670Z,10.00
2019-02-22T10:50:17.396Z,9.80
2019-02-22T10:52:45.052Z,9.60
2019-02-22T10:55:17.492Z,9.40
2019-02-22T11:02:04.571Z,9.30
2019-02-22T11:05:12.126Z,9.30
2019-02-22T11:07:40.852Z,9.30
2019-02-22T11:10:12.450Z,9.40
2019-02-22T11:12:48.487Z,9.50
2019-02-22T11:20:07.397Z,9.40
2019-02-22T11:22:35.438Z,9.50
2019-02-22T11:25:04.199Z,9.60
2019-02-22T11:27:33.695Z,9.60
2019-02-22T11:30:17.518Z,9.50
2019-02-22T11:39:29.523Z,10.30
2019-02-22T11:41:58.530Z,10.60
2019-02-22T11:44:27.822Z,10.60
2019-02-22T11:46:57.960Z,10.70
2019-02-22T11:49:30.609Z,10.60
2019-02-22T11:52:48.354Z,10.60
2019-02-22T11:55:33.637Z,10.50
2019-02-22T11:58:17.266Z,10.20
2019-02-22T12:00:56.279Z,10.40
2019-02-22T12:03:35.261Z,10.60
2019-02-22T12:06:12.297Z,10.60
2019-02-22T12:08:47.285Z,10.60
2019-02-22T12:11:31.827Z,10.40
2019-02-22T12:14:52.149Z,10.60
2019-02-22T12:21:41.789Z,10.40
2019-02-22T12:24:28.257Z,10.30
2019-02-22T12:26:58.493Z,10.30
2019-02-22T12:29:40.166Z,10.30
2019-02-22T12:32:12.420Z,10.30
2019-02-22T12:35:07.459Z,10.30
2019-02-22T12:37:36.559Z,10.30
2019-02-22T12:40:04.552Z,10.30
2019-02-22T12:42:44.298Z,10.30
2019-02-22T12:45:28.824Z,10.40
2019-02-22T12:48:04.732Z,10.30
2019-02-22T12:50:33.537Z,10.30
2019-02-22T12:53:08.741Z,10.40
2019-02-22T12:55:39.553Z,10.40
2019-02-22T12:58:11.269Z,10.40
2019-02-22T13:01:05.600Z,10.30
2019-02-22T13:07:25.990Z,10.20
2019-02-22T13:09:56.551Z,10.10
2019-02-22T13:12:52.352Z,10.00
2019-02-22T13:19:50.187Z,10.10
2019-02-22T13:22:27.516Z,10.10
2019-02-22T13:25:00.549Z,10.00
2019-02-22T13:27:57.244Z,9.90
2019-02-22T13:31:00.827Z,10.00
2019-02-22T13:33:31.922Z,10.10
2019-02-22T13:36:00.134Z,10.10
2019-02-22T13:38:34.507Z,10.10
2019-02-22T13:42:10.187Z,10.10
2019-02-22T13:45:25.995Z,10.10
2019-02-22T13:47:58.235Z,10.10
2019-02-22T13:51:04.754Z,10.00
2019-02-22T13:53:53.973Z,10.00
2019-02-22T13:56:29.539Z,10.00
2019-02-22T13:59:23.439Z,10.10
2019-02-22T14:01:52.965Z,10.10
2019-02-22T14:04:20.676Z,10.10
2019-02-22T14:06:48.670Z,10.00
2019-02-22T14:13:00.906Z,9.90
2019-02-22T14:15:37.455Z,9.70
2019-02-22T14:18:22.523Z,9.60
2019-02-22T14:24:34.596Z,9.60
2019-02-22T14:27:04.671Z,9.60
2019-02-22T14:29:33.391Z,9.50
2019-02-22T14:32:10.265Z,9.70
2019-02-22T14:34:44.926Z,9.80
2019-02-22T14:37:17.038Z,9.90
2019-02-22T14:40:19.213Z,10.10
2019-02-22T14:42:48.352Z,10.10
2019-02-22T14:45:18.958Z,10.30
2019-02-22T14:47:48.689Z,10.50
2019-02-22T14:54:40.291Z,10.60
2019-02-22T14:57:23.350Z,10.70
2019-02-22T14:59:51.363Z,10.70
2019-02-22T15:02:18.955Z,10.60
2019-02-22T15:04:59.894Z,10.60
2019-02-22T15:07:31.151Z,10.40
2019-02-22T15:10:01.004Z,10.40
2019-02-22T15:12:42.656Z,10.30
2019-02-22T15:15:16.082Z,10.20
2019-02-22T15:18:33.526Z,10.10
2019-02-22T15:21:06.790Z,10.20
2019-02-22T15:23:55.759Z,10.20
2019-02-22T15:26:38.713Z,10.10
2019-02-22T15:29:36.115Z,10.10
2019-02-22T15:36:28.471Z,10.00
2019-02-22T15:38:57.335Z,9.90
2019-02-22T15:41:56.260Z,9.80
2019-02-22T15:44:26.619Z,9.80
2019-02-22T15:47:16.473Z,9.90
2019-02-22T15:49:44.723Z,9.90
2019-02-22T15:52:23.841Z,9.80
2019-02-22T15:55:18.714Z,9.70
2019-02-22T15:57:48.478Z,9.70
2019-02-22T16:01:26.382Z,9.70
2019-02-22T16:07:15.818Z,9.60
2019-02-22T16:13:54.758Z,9.50
2019-02-22T16:16:23.999Z,9.50
2019-02-22T16:18:52.107Z,9.40
2019-02-22T16:21:27.723Z,9.30
2019-02-22T16:23:55.309Z,9.40
2019-02-22T16:26:29.100Z,9.30
2019-02-22T16:29:01.319Z,9.30
2019-02-22T16:31:47.086Z,9.20
2019-02-22T16:34:15.037Z,9.20
2019-02-22T16:36:45.830Z,8.90
2019-02-22T16:39:39.397Z,8.80
2019-02-22T16:42:08.907Z,8.60
2019-02-22T16:45:00.426Z,8.50
2019-02-22T16:47:40.221Z,8.40
2019-02-22T16:50:49.438Z,8.30
2019-02-22T16:57:14.599Z,8.30
2019-02-22T16:59:45.055Z,8.40
2019-02-22T17:12:46.176Z,8.30
2019-02-22T17:15:43.370Z,8.30
2019-02-22T17:19:23.276Z,8.20
2019-02-22T17:22:09.769Z,8.20
2019-02-22T17:24:47.230Z,8.10
2019-02-22T17:27:20.981Z,8.00
2019-02-22T17:29:51.676Z,8.00
2019-02-22T17:32:25.066Z,8.00
2019-02-22T17:34:55.273Z,7.90
2019-02-22T17:37:32.035Z,7.80
2019-02-22T17:40:20.102Z,7.80
2019-02-22T17:42:51.645Z,7.80
2019-02-22T17:45:23.904Z,7.70
2019-02-22T17:47:51.867Z,7.70
2019-02-22T17:50:21.329Z,7.70
2019-02-22T17:56:00.369Z,7.50
2019-02-22T17:59:35.892Z,7.50
2019-02-22T18:02:30.289Z,7.50
2019-02-22T18:05:08.157Z,7.50
2019-02-22T18:07:44.554Z,7.50
2019-02-22T18:10:58.575Z,7.50
2019-02-22T18:13:26.589Z,7.50
2019-02-22T18:15:59.821Z,7.40
2019-02-22T18:18:27.617Z,7.40
2019-02-22T18:20:56.465Z,7.30
2019-02-22T18:23:33.693Z,7.30
2019-02-22T18:26:06.542Z,7.20
2019-02-22T18:32:21.931Z,7.20
2019-02-22T18:35:39.648Z,7.10
2019-02-22T18:38:10.747Z,7.10
2019-02-22T18:41:26.170Z,7.20
2019-02-22T18:43:59.940Z,7.20
2019-02-22T18:46:49.604Z,7.20
2019-02-22T18:49:25.205Z,7.10
2019-02-22T18:55:56.187Z,7.10
2019-02-22T18:58:48.328Z,7.10
2019-02-22T19:01:26.298Z,7.00
2019-02-22T19:03:59.262Z,7.00
2019-02-22T19:06:29.458Z,7.00
2019-02-22T19:09:03.191Z,6.90
2019-02-22T19:11:48.985Z,6.90
2019-02-22T19:14:23.214Z,6.90
2019-02-22T19:16:55.800Z,6.80
2019-02-22T19:19:27.784Z,6.80
2019-02-22T19:22:04.080Z,6.60
2019-02-22T19:24:52.250Z,6.50
2019-02-22T19:27:46.325Z,6.50
2019-02-22T19:30:16.171Z,6.30
2019-02-22T19:32:46.893Z,6.10
2019-02-22T19:35:15.065Z,6.00
2019-02-22T19:42:32.202Z,5.90
2019-02-22T19:45:05.125Z,5.90
2019-02-22T19:47:41.330Z,5.60
2019-02-22T19:50:02.563Z,5.70
2019-02-22T19:52:38.266Z,5.60
2019-02-22T19:55:07.658Z,5.50
2019-02-22T19:57:35.833Z,5.30
2019-02-22T20:00:06.724Z,5.30
2019-02-22T20:06:44.108Z,5.20
2019-02-22T20:09:24.609Z,5.10
2019-02-22T20:11:57.627Z,5.10
2019-02-22T20:14:29.381Z,5.00
2019-02-22T20:17:04.707Z,5.00
2019-02-22T20:19:53.496Z,4.90
2019-02-22T20:22:23.820Z,4.90
2019-02-22T20:24:54.716Z,4.90
2019-02-22T20:27:40.666Z,4.90
2019-02-22T20:30:16.491Z,4.90
2019-02-22T20:32:50.221Z,4.90
2019-02-22T20:35:38.791Z,4.90
2019-02-22T20:38:31.477Z,4.80
2019-02-22T20:41:21.727Z,4.80
2019-02-22T20:43:54.738Z,4.80
2019-02-22T20:46:25.187Z,4.80
2019-02-22T20:49:01.441Z,4.90
2019-02-22T20:51:45.031Z,4.80
2019-02-22T20:54:28.796Z,4.80
2019-02-22T20:57:11.234Z,4.80
2019-02-22T20:59:36.810Z,4.90
2019-02-22T21:02:09.236Z,4.90
2019-02-22T21:04:43.013Z,4.90
2019-02-22T21:07:12.132Z,5.00
2019-02-22T21:09:42.326Z,5.10
2019-02-22T21:12:18.496Z,5.10
2019-02-22T21:14:54.980Z,5.10
2019-02-22T21:17:26.936Z,5.10
2019-02-22T21:19:54.951Z,5.00
2019-02-22T21:22:23.262Z,5.00
2019-02-22T21:24:53.358Z,4.90
2019-02-22T21:27:24.023Z,4.90
2019-02-22T21:29:52.777Z,5.00
2019-02-22T21:32:21.650Z,4.90
2019-02-22T21:34:57.649Z,4.90
2019-02-22T21:37:30.030Z,5.00
2019-02-22T21:40:07.662Z,5.10
2019-02-22T21:42:38.903Z,5.10
2019-02-22T21:45:13.481Z,4.80
2019-02-22T21:47:54.769Z,4.90
2019-02-22T21:50:19.605Z,4.90
2019-02-22T21:52:58.632Z,4.70
2019-02-22T21:55:36.818Z,4.60
2019-02-22T21:58:12.250Z,4.70
2019-02-22T22:01:14.144Z,4.60
2019-02-22T22:08:21.843Z,4.70
2019-02-22T22:10:50.291Z,4.80
2019-02-22T22:13:18.601Z,4.80
2019-02-22T22:15:46.389Z,4.90
2019-02-22T22:18:19.560Z,4.90
2019-02-22T22:20:49.587Z,4.80
2019-02-22T22:23:33.339Z,4.70
2019-02-22T22:26:01.052Z,4.80
2019-02-22T22:28:33.878Z,4.80
2019-02-22T22:31:03.742Z,4.80
2019-02-22T22:33:34.177Z,4.80
2019-02-22T22:36:05.290Z,4.60
2019-02-22T22:38:39.842Z,4.60
2019-02-22T22:41:21.620Z,4.60
2019-02-22T22:43:54.412Z,4.60
2019-02-22T22:46:36.779Z,4.60
2019-02-22T22:49:03.764Z,4.60
2019-02-22T22:51:40.053Z,4.50
2019-02-22T22:55:17.536Z,4.60
2019-02-22T22:58:01.869Z,4.60
2019-02-22T23:01:10.257Z,4.60
2019-02-22T23:03:40.039Z,4.50
2019-02-22T23:06:12.568Z,4.40
2019-02-22T23:08:42.773Z,4.40
2019-02-22T23:11:10.563Z,4.30
2019-02-22T23:13:41.168Z,4.30
2019-02-22T23:16:09.210Z,4.30
2019-02-22T23:18:37.085Z,4.20
2019-02-22T23:21:04.950Z,4.10
2019-02-22T23:23:32.743Z,4.00
2019-02-22T23:26:03.671Z,3.90
2019-02-22T23:28:35.887Z,3.90
2019-02-22T23:31:03.943Z,3.80
2019-02-22T23:33:31.790Z,3.80
2019-02-22T23:36:00.391Z,3.80
2019-02-22T23:38:28.099Z,3.80
2019-02-22T23:41:02.353Z,3.70
2019-02-22T23:43:58.139Z,3.70
2019-02-22T23:46:27.257Z,3.70
2019-02-22T23:48:57.843Z,3.50
2019-02-22T23:51:25.540Z,3.50
2019-02-22T23:54:45.642Z,3.50
2019-02-22T23:57:14.900Z,3.40
2019-02-22T23:59:46.316Z,3.40
